Terminal Aerodrome Forecast
Issued by NWS Atlanta, GA

Home | Current Version | Previous Version | Text Only | Print | Product List | Glossary On
Versions: 1 2 3 4 5 6 7 8 9 10 11 12 13 14 15 16 17 18 19 20 21 22 23
000
FTUS42 KFFC 051726
TAFMCN
TAF
KMCN 051726Z 0518/0618 23011G18KT P6SM VCSH BKN035
     FM060200 21005KT P6SM FEW035 BKN090
     FM061000 25003KT 5SM BR SCT006 BKN100
     FM061400 26005KT P6SM SCT035=

USA.gov is the U.S. government's official web portal to all federal, state and local government web resources and services.